createdAt,value
2019-02-08T00:00:49.458Z,100727.81
2019-02-08T00:03:18.017Z,100734.43
2019-02-08T00:05:46.594Z,100731.48
2019-02-08T00:08:15.210Z,100729.69
2019-02-08T00:10:43.732Z,100739.11
2019-02-08T00:13:12.303Z,100738.44
2019-02-08T00:15:43.353Z,100731.91
2019-02-08T00:18:12.907Z,100736.64
2019-02-08T00:20:41.774Z,100734.81
2019-02-08T00:23:10.506Z,100738.29
2019-02-08T00:25:39.572Z,100741.00
2019-02-08T00:28:08.182Z,100746.44
2019-02-08T00:30:36.939Z,100739.25
2019-02-08T00:33:06.061Z,100745.86
2019-02-08T00:35:34.974Z,100752.67
2019-02-08T00:38:03.575Z,100746.63
2019-02-08T00:40:32.125Z,100744.55
2019-02-08T00:43:00.693Z,100750.30
2019-02-08T00:45:29.240Z,100751.84
2019-02-08T00:47:57.927Z,100751.12
2019-02-08T00:50:28.289Z,100748.28
2019-02-08T00:52:58.333Z,100756.19
2019-02-08T00:55:26.897Z,100761.27
2019-02-08T00:57:55.899Z,100758.86
2019-02-08T01:00:25.109Z,100761.86
2019-02-08T01:02:54.758Z,100774.11
2019-02-08T01:05:25.300Z,100766.66
2019-02-08T01:07:54.150Z,100764.01
2019-02-08T01:10:30.690Z,100763.84
2019-02-08T01:13:01.060Z,100771.08
2019-02-08T01:15:31.732Z,100768.33
2019-02-08T01:18:00.372Z,100775.00
2019-02-08T01:20:29.310Z,100772.42
2019-02-08T01:22:57.931Z,100772.39
2019-02-08T01:25:28.149Z,100768.45
2019-02-08T01:27:57.109Z,100769.69
2019-02-08T01:30:27.796Z,100766.51
2019-02-08T01:32:56.384Z,100772.55
2019-02-08T01:35:25.556Z,100773.80
2019-02-08T01:37:54.628Z,100769.58
2019-02-08T01:40:38.236Z,100762.45
2019-02-08T01:43:08.482Z,100774.57
2019-02-08T01:45:37.470Z,100772.85
2019-02-08T01:48:08.086Z,100775.03
2019-02-08T01:50:36.688Z,100776.61
2019-02-08T01:53:06.578Z,100779.09
2019-02-08T01:55:35.485Z,100783.16
2019-02-08T01:58:04.061Z,100780.32
2019-02-08T02:00:41.445Z,100788.00
2019-02-08T02:03:10.778Z,100793.12
2019-02-08T02:05:39.424Z,100792.42
2019-02-08T02:08:08.478Z,100795.30
2019-02-08T02:10:39.508Z,100801.54
2019-02-08T02:13:09.903Z,100795.95
2019-02-08T02:15:38.523Z,100795.02
2019-02-08T02:18:08.200Z,100798.59
2019-02-08T02:20:38.978Z,100805.46
2019-02-08T02:23:08.919Z,100809.19
2019-02-08T02:25:37.502Z,100810.39
2019-02-08T02:28:06.563Z,100799.98
2019-02-08T02:30:36.506Z,100810.55
2019-02-08T02:33:13.200Z,100814.34
2019-02-08T02:35:41.873Z,100814.19
2019-02-08T02:38:10.465Z,100814.90
2019-02-08T02:40:39.486Z,100815.55
2019-02-08T02:43:08.909Z,100816.48
2019-02-08T02:45:39.322Z,100820.66
2019-02-08T02:48:09.626Z,100814.60
2019-02-08T02:50:38.321Z,100819.55
2019-02-08T02:53:07.119Z,100816.96
2019-02-08T02:55:35.730Z,100817.38
2019-02-08T02:58:05.241Z,100800.66
2019-02-08T03:00:36.940Z,100811.33
2019-02-08T03:03:06.314Z,100807.41
2019-02-08T03:05:34.938Z,100812.19
2019-02-08T03:08:05.315Z,100816.59
2019-02-08T03:10:33.973Z,100809.48
2019-02-08T03:13:02.506Z,100818.43
2019-02-08T03:15:31.094Z,100815.50
2019-02-08T03:17:59.629Z,100812.72
2019-02-08T03:20:28.261Z,100817.20
2019-02-08T03:22:57.273Z,100818.13
2019-02-08T03:25:29.745Z,100822.19
2019-02-08T03:27:58.455Z,100822.53
2019-02-08T03:30:36.315Z,100813.88
2019-02-08T03:33:05.473Z,100818.84
2019-02-08T03:35:34.138Z,100814.56
2019-02-08T03:38:03.108Z,100818.54
2019-02-08T03:40:32.127Z,100825.12
2019-02-08T03:43:00.851Z,100820.66
2019-02-08T03:45:31.083Z,100818.65
2019-02-08T03:47:59.661Z,100813.31
2019-02-08T03:50:28.248Z,100819.66
2019-02-08T03:52:56.891Z,100826.17
2019-02-08T03:55:25.486Z,100824.36
2019-02-08T03:57:54.116Z,100821.39
2019-02-08T04:00:29.592Z,100825.83
2019-02-08T04:02:58.261Z,100827.07
2019-02-08T04:05:26.908Z,100830.88
2019-02-08T04:07:55.563Z,100838.95
2019-02-08T04:10:24.137Z,100837.60
2019-02-08T04:12:52.732Z,100836.89
2019-02-08T04:15:23.148Z,100849.34
2019-02-08T04:17:51.860Z,100850.20
2019-02-08T04:20:22.778Z,100852.42
2019-02-08T04:22:51.388Z,100854.60
2019-02-08T04:25:20.266Z,100859.34
2019-02-08T04:27:48.893Z,100857.05
2019-02-08T04:30:20.606Z,100862.16
2019-02-08T04:32:49.222Z,100867.87
2019-02-08T04:35:17.825Z,100865.96
2019-02-08T04:37:46.393Z,100866.67
2019-02-08T04:40:17.718Z,100863.66
2019-02-08T04:42:46.856Z,100870.92
2019-02-08T04:45:16.305Z,100879.05
2019-02-08T04:47:45.245Z,100879.45
2019-02-08T04:50:19.673Z,100879.50
2019-02-08T04:52:49.149Z,100874.00
2019-02-08T04:55:17.730Z,100872.39
2019-02-08T04:57:46.782Z,100869.04
2019-02-08T05:00:24.291Z,100874.04
2019-02-08T05:02:52.936Z,100877.16
2019-02-08T05:05:21.457Z,100878.44
2019-02-08T05:07:50.085Z,100873.33
2019-02-08T05:10:27.526Z,100880.52
2019-02-08T05:12:56.181Z,100877.87
2019-02-08T05:15:25.057Z,100875.92
2019-02-08T05:17:53.962Z,100875.35
2019-02-08T05:20:26.027Z,100868.63
2019-02-08T05:22:54.661Z,100875.17
2019-02-08T05:25:23.324Z,100870.20
2019-02-08T05:27:52.670Z,100871.82
2019-02-08T05:30:24.430Z,100878.89
2019-02-08T05:32:54.063Z,100882.05
2019-02-08T05:35:24.465Z,100884.94
2019-02-08T05:37:53.017Z,100884.56
2019-02-08T05:40:22.650Z,100874.98
2019-02-08T05:42:51.321Z,100876.64
2019-02-08T05:45:21.653Z,100874.52
2019-02-08T05:47:50.208Z,100879.68
2019-02-08T05:50:21.962Z,100880.28
2019-02-08T05:52:50.662Z,100879.75
2019-02-08T05:55:22.192Z,100874.38
2019-02-08T05:57:50.789Z,100881.86
2019-02-08T06:00:26.728Z,100878.73
2019-02-08T06:02:55.423Z,100877.58
2019-02-08T06:05:24.494Z,100881.64
2019-02-08T06:07:53.190Z,100878.70
2019-02-08T06:10:21.731Z,100880.28
2019-02-08T06:12:50.711Z,100891.16
2019-02-08T06:15:21.868Z,100892.39
2019-02-08T06:17:50.439Z,100898.00
2019-02-08T06:20:21.117Z,100896.75
2019-02-08T06:22:50.057Z,100895.28
2019-02-08T06:25:21.166Z,100899.57
2019-02-08T06:27:50.489Z,100895.40
2019-02-08T06:30:22.352Z,100894.13
2019-02-08T06:32:51.005Z,100888.17
2019-02-08T06:35:21.226Z,100898.48
2019-02-08T06:37:50.065Z,100893.94
2019-02-08T06:40:26.564Z,100897.39
2019-02-08T06:42:55.555Z,100902.88
2019-02-08T06:45:25.960Z,100897.13
2019-02-08T06:47:54.913Z,100906.87
2019-02-08T06:50:25.785Z,100907.95
2019-02-08T06:52:55.532Z,100911.83
2019-02-08T06:55:24.631Z,100913.77
2019-02-08T06:57:55.886Z,100918.13
2019-02-08T07:00:32.718Z,100917.95
2019-02-08T07:03:19.856Z,100923.89
2019-02-08T07:05:52.966Z,100920.66
2019-02-08T07:08:27.894Z,100926.38
2019-02-08T07:11:00.967Z,100932.25
2019-02-08T07:13:31.237Z,100934.95
2019-02-08T07:16:04.350Z,100941.66
2019-02-08T07:18:37.640Z,100943.38
2019-02-08T07:21:13.868Z,100945.73
2019-02-08T07:23:59.994Z,100945.24
2019-02-08T07:26:30.221Z,100954.31
2019-02-08T07:29:15.708Z,100947.42
2019-02-08T07:31:52.048Z,100942.53
2019-02-08T07:34:39.236Z,100947.61
2019-02-08T07:37:18.695Z,100957.05
2019-02-08T07:40:00.616Z,100944.73
2019-02-08T07:42:34.184Z,100955.02
2019-02-08T07:45:05.605Z,100949.70
2019-02-08T07:47:39.256Z,100955.80
2019-02-08T07:50:15.459Z,100948.23
2019-02-08T07:52:45.804Z,100954.17
2019-02-08T07:55:27.102Z,100961.70
2019-02-08T07:58:14.189Z,100951.77
2019-02-08T08:00:47.339Z,100966.90
2019-02-08T08:03:20.488Z,100962.83
2019-02-08T08:06:04.352Z,100959.88
2019-02-08T08:08:43.836Z,100966.34
2019-02-08T08:11:32.126Z,100966.94
2019-02-08T08:14:08.883Z,100968.67
2019-02-08T08:16:55.390Z,100966.86
2019-02-08T08:19:25.632Z,100954.19
2019-02-08T08:21:56.236Z,100960.08
2019-02-08T08:24:34.498Z,100966.48
2019-02-08T08:27:07.292Z,100969.98
2019-02-08T08:29:41.932Z,100961.22
2019-02-08T08:32:12.127Z,100969.37
2019-02-08T08:35:00.239Z,100965.69
2019-02-08T08:37:44.342Z,100970.82
2019-02-08T08:40:42.105Z,100967.11
2019-02-08T08:43:28.656Z,100968.08
2019-02-08T08:46:26.300Z,100966.84
2019-02-08T08:49:03.990Z,100970.54
2019-02-08T08:51:50.573Z,100960.38
2019-02-08T08:54:43.510Z,100970.78
2019-02-08T08:57:22.665Z,100971.94
2019-02-08T09:00:18.405Z,100970.20
2019-02-08T09:03:08.164Z,100973.28
2019-02-08T09:05:49.032Z,100971.22
2019-02-08T09:08:37.260Z,100974.66
2019-02-08T09:11:09.087Z,100969.31
2019-02-08T09:14:00.947Z,100977.19
2019-02-08T09:16:33.148Z,100968.19
2019-02-08T09:19:19.763Z,100976.55
2019-02-08T09:22:06.534Z,100962.70
2019-02-08T09:24:47.223Z,100967.90
2019-02-08T09:27:36.831Z,100957.62
2019-02-08T09:30:17.284Z,100963.53
2019-02-08T09:32:54.481Z,100944.03
2019-02-08T09:35:55.701Z,100946.00
2019-02-08T09:38:39.719Z,100943.45
2019-02-08T09:41:20.709Z,100943.05
2019-02-08T09:44:15.336Z,100949.17
2019-02-08T09:46:53.230Z,100944.73
2019-02-08T09:49:47.676Z,100944.80
2019-02-08T09:52:37.188Z,100952.49
2019-02-08T09:55:23.941Z,100943.77
2019-02-08T09:57:58.567Z,100943.48
2019-02-08T10:00:48.480Z,100945.48
2019-02-08T10:03:37.141Z,100948.86
2019-02-08T10:06:21.815Z,100955.79
2019-02-08T10:09:21.169Z,100947.64
2019-02-08T10:12:05.062Z,100952.28
2019-02-08T10:14:54.875Z,100949.09
2019-02-08T10:17:47.542Z,100944.39
2019-02-08T10:20:24.853Z,100948.47
2019-02-08T10:23:13.553Z,100941.37
2019-02-08T10:26:05.504Z,100939.18
2019-02-08T10:28:47.516Z,100941.41
2019-02-08T10:31:24.857Z,100949.09
2019-02-08T10:34:16.290Z,100952.02
2019-02-08T10:36:57.048Z,100939.73
2019-02-08T10:39:52.432Z,100942.78
2019-02-08T10:42:44.751Z,100947.11
2019-02-08T10:45:34.695Z,100943.30
2019-02-08T10:48:09.318Z,100938.16
2019-02-08T10:50:50.283Z,100924.97
2019-02-08T10:53:53.175Z,100926.38
2019-02-08T10:56:46.864Z,100920.92
2019-02-08T10:59:24.348Z,100932.66
2019-02-08T11:02:29.355Z,100921.42
2019-02-08T11:05:22.479Z,100911.02
2019-02-08T11:08:10.578Z,100909.13
2019-02-08T11:10:58.698Z,100909.92
2019-02-08T11:13:39.207Z,100902.57
2019-02-08T11:16:44.266Z,100907.20
2019-02-08T11:19:19.759Z,100911.87
2019-02-08T11:21:50.146Z,100907.59
2019-02-08T11:24:20.563Z,100905.34
2019-02-08T11:26:49.203Z,100902.81
2019-02-08T11:29:17.876Z,100895.78
2019-02-08T11:31:46.517Z,100904.50
2019-02-08T11:34:15.573Z,100894.57
2019-02-08T11:36:44.139Z,100892.89
2019-02-08T11:39:16.301Z,100889.28
2019-02-08T11:41:46.216Z,100889.51
2019-02-08T11:44:15.057Z,100891.42
2019-02-08T11:46:43.807Z,100881.59
2019-02-08T11:49:12.418Z,100881.73
2019-02-08T11:51:41.466Z,100882.59
2019-02-08T11:54:10.178Z,100883.38
2019-02-08T11:56:39.230Z,100886.81
2019-02-08T11:59:08.308Z,100890.52
2019-02-08T12:01:38.585Z,100885.63
2019-02-08T12:04:07.656Z,100875.08
2019-02-08T12:06:36.347Z,100873.83
2019-02-08T12:09:08.082Z,100879.81
2019-02-08T12:11:36.636Z,100869.14
2019-02-08T12:14:07.028Z,100873.91
2019-02-08T12:16:38.362Z,100882.09
2019-02-08T12:19:07.169Z,100865.52
2019-02-08T12:21:35.848Z,100860.16
2019-02-08T12:24:05.326Z,100856.54
2019-02-08T12:26:37.862Z,100848.50
2019-02-08T12:29:05.378Z,100851.78
2019-02-08T12:31:34.110Z,100854.32
2019-02-08T12:34:03.081Z,100859.83
2019-02-08T12:36:31.809Z,100854.55
2019-02-08T12:39:00.643Z,100847.97
2019-02-08T12:41:29.258Z,100850.50
2019-02-08T12:43:57.842Z,100853.20
2019-02-08T12:46:27.674Z,100848.02
2019-02-08T12:48:56.353Z,100850.78
2019-02-08T12:51:24.933Z,100844.28
2019-02-08T12:53:53.649Z,100848.36
2019-02-08T12:56:22.185Z,100850.80
2019-02-08T12:58:50.719Z,100842.38
2019-02-08T13:01:23.078Z,100836.04
2019-02-08T13:03:51.633Z,100832.77
2019-02-08T13:06:20.307Z,100829.78
2019-02-08T13:08:48.914Z,100829.50
2019-02-08T13:11:17.558Z,100830.32
2019-02-08T13:13:46.117Z,100820.20
2019-02-08T13:16:14.686Z,100817.47
2019-02-08T13:18:43.342Z,100814.98
2019-02-08T13:21:12.745Z,100807.05
2019-02-08T13:23:41.332Z,100804.79
2019-02-08T13:26:10.980Z,100808.45
2019-02-08T13:28:39.570Z,100804.06
2019-02-08T13:31:08.224Z,100803.00
2019-02-08T13:33:36.817Z,100804.02
2019-02-08T13:36:08.605Z,100796.66
2019-02-08T13:38:37.204Z,100809.55
2019-02-08T13:41:05.878Z,100803.92
2019-02-08T13:43:34.472Z,100808.12
2019-02-08T13:46:04.058Z,100792.60
2019-02-08T13:48:33.162Z,100797.00
2019-02-08T13:51:01.715Z,100800.80
2019-02-08T13:53:30.404Z,100789.06
2019-02-08T13:55:58.980Z,100800.02
2019-02-08T13:58:27.761Z,100808.25
2019-02-08T14:00:56.471Z,100815.34
2019-02-08T14:03:25.140Z,100804.91
2019-02-08T14:05:53.751Z,100816.34
2019-02-08T14:08:22.329Z,100811.17
2019-02-08T14:10:52.930Z,100819.03
2019-02-08T14:13:21.610Z,100816.23
2019-02-08T14:15:50.120Z,100799.41
2019-02-08T14:18:18.912Z,100796.81
2019-02-08T14:20:47.606Z,100795.05
2019-02-08T14:23:16.361Z,100786.65
2019-02-08T14:25:46.546Z,100782.61
2019-02-08T14:28:15.139Z,100783.91
2019-02-08T14:30:44.327Z,100780.38
2019-02-08T14:33:13.515Z,100774.00
2019-02-08T14:35:42.611Z,100768.69
2019-02-08T14:38:14.793Z,100767.15
2019-02-08T14:40:43.877Z,100767.08
2019-02-08T14:43:13.044Z,100763.80
2019-02-08T14:45:41.586Z,100769.27
2019-02-08T14:48:10.207Z,100767.55
2019-02-08T14:50:39.064Z,100764.88
2019-02-08T14:53:07.799Z,100757.89
2019-02-08T14:55:36.444Z,100754.90
2019-02-08T14:58:09.393Z,100755.45
2019-02-08T15:00:38.064Z,100762.28
2019-02-08T15:03:07.100Z,100756.57
2019-02-08T15:05:36.151Z,100760.13
2019-02-08T15:08:04.791Z,100755.23
2019-02-08T15:10:36.630Z,100754.42
2019-02-08T15:13:05.560Z,100747.58
2019-02-08T15:15:34.175Z,100738.63
2019-02-08T15:18:02.713Z,100742.45
2019-02-08T15:20:34.108Z,100727.98
2019-02-08T15:23:02.742Z,100729.64
2019-02-08T15:25:31.381Z,100737.02
2019-02-08T15:27:59.901Z,100731.00
2019-02-08T15:30:31.406Z,100739.75
2019-02-08T15:32:59.985Z,100738.39
2019-02-08T15:35:31.556Z,100742.48
2019-02-08T15:38:00.591Z,100733.48
2019-02-08T15:40:41.131Z,100728.05
2019-02-08T15:43:11.376Z,100737.58
2019-02-08T15:45:41.857Z,100727.20
2019-02-08T15:48:10.583Z,100725.30
2019-02-08T15:50:39.395Z,100720.92
2019-02-08T15:53:08.066Z,100724.75
2019-02-08T15:55:48.527Z,100713.85
2019-02-08T15:58:17.192Z,100713.04
2019-02-08T16:00:45.876Z,100704.03
2019-02-08T16:03:14.588Z,100711.42
2019-02-08T16:05:43.226Z,100702.66
2019-02-08T16:08:12.177Z,100701.05
2019-02-08T16:10:40.756Z,100710.31
2019-02-08T16:13:09.423Z,100715.25
2019-02-08T16:15:37.966Z,100715.79
2019-02-08T16:18:06.982Z,100718.52
2019-02-08T16:20:35.613Z,100718.80
2019-02-08T16:23:04.461Z,100714.42
2019-02-08T16:25:33.501Z,100707.58
2019-02-08T16:28:02.145Z,100709.51
2019-02-08T16:30:32.747Z,100712.23
2019-02-08T16:33:01.786Z,100706.50
2019-02-08T16:35:30.735Z,100705.95
2019-02-08T16:38:00.105Z,100703.50
2019-02-08T16:40:32.166Z,100711.70
2019-02-08T16:43:00.788Z,100703.23
2019-02-08T16:45:37.234Z,100708.41
2019-02-08T16:48:11.220Z,100702.42
2019-02-08T16:50:40.754Z,100697.49
2019-02-08T16:53:10.692Z,100695.87
2019-02-08T16:55:39.371Z,100687.14
2019-02-08T16:58:09.378Z,100688.50
2019-02-08T17:00:39.258Z,100686.03
2019-02-08T17:03:13.213Z,100686.86
2019-02-08T17:05:42.097Z,100686.05
2019-02-08T17:08:11.310Z,100678.39
2019-02-08T17:10:39.962Z,100674.30
2019-02-08T17:13:08.737Z,100669.39
2019-02-08T17:15:38.560Z,100671.57
2019-02-08T17:18:08.038Z,100670.22
2019-02-08T17:20:42.446Z,100673.48
2019-02-08T17:23:11.177Z,100672.41
2019-02-08T17:25:39.792Z,100664.23
2019-02-08T17:28:10.059Z,100657.94
2019-02-08T17:30:38.802Z,100659.58
2019-02-08T17:33:08.921Z,100654.92
2019-02-08T17:35:38.295Z,100650.85
2019-02-08T17:38:06.848Z,100652.20
2019-02-08T17:40:40.787Z,100644.02
2019-02-08T17:43:09.827Z,100649.21
2019-02-08T17:45:38.753Z,100650.56
2019-02-08T17:48:10.110Z,100647.83
2019-02-08T17:50:38.801Z,100643.50
2019-02-08T17:53:07.374Z,100639.65
2019-02-08T17:55:36.018Z,100634.21
2019-02-08T17:58:04.876Z,100633.66
2019-02-08T18:00:40.890Z,100626.57
2019-02-08T18:03:09.483Z,100625.19
2019-02-08T18:05:38.398Z,100617.30
2019-02-08T18:08:07.382Z,100619.47
2019-02-08T18:10:36.325Z,100622.75
2019-02-08T18:13:05.542Z,100612.92
2019-02-08T18:15:34.201Z,100616.73
2019-02-08T18:18:04.199Z,100617.83
2019-02-08T18:20:45.214Z,100615.09
2019-02-08T18:23:15.044Z,100612.63
2019-02-08T18:25:43.875Z,100613.98
2019-02-08T18:28:12.448Z,100609.33
2019-02-08T18:30:41.047Z,100611.24
2019-02-08T18:33:09.708Z,100607.67
2019-02-08T18:35:38.294Z,100598.13
2019-02-08T18:38:07.069Z,100601.94
2019-02-08T18:40:35.714Z,100591.87
2019-02-08T18:43:04.449Z,100586.69
2019-02-08T18:45:35.504Z,100581.76
2019-02-08T18:48:05.007Z,100581.22
2019-02-08T18:50:48.101Z,100576.57
2019-02-08T18:53:17.335Z,100572.21
2019-02-08T18:55:46.539Z,100567.03
2019-02-08T18:58:19.065Z,100561.02
2019-02-08T19:00:47.924Z,100561.84
2019-02-08T19:03:16.512Z,100562.66
2019-02-08T19:05:45.165Z,100568.89
2019-02-08T19:08:14.356Z,100565.09
2019-02-08T19:10:48.148Z,100561.83
2019-02-08T19:13:16.863Z,100558.55
2019-02-08T19:15:45.727Z,100555.23
2019-02-08T19:18:14.351Z,100542.75
2019-02-08T19:20:43.279Z,100538.94
2019-02-08T19:23:12.136Z,100539.74
2019-02-08T19:25:45.402Z,100530.75
2019-02-08T19:28:14.945Z,100528.55
2019-02-08T19:30:44.442Z,100530.73
2019-02-08T19:33:13.085Z,100517.95
2019-02-08T19:35:41.701Z,100516.30
2019-02-08T19:38:11.138Z,100513.58
2019-02-08T19:40:47.556Z,100505.72
2019-02-08T19:43:16.271Z,100504.91
2019-02-08T19:45:45.227Z,100503.80
2019-02-08T19:48:16.337Z,100499.72
2019-02-08T19:50:47.189Z,100501.63
2019-02-08T19:53:15.864Z,100502.73
2019-02-08T19:55:45.644Z,100501.64
2019-02-08T19:58:14.335Z,100500.55
2019-02-08T20:00:44.644Z,100501.94
2019-02-08T20:03:13.627Z,100494.59
2019-02-08T20:05:42.392Z,100488.31
2019-02-08T20:08:12.968Z,100482.86
2019-02-08T20:10:44.125Z,100483.95
2019-02-08T20:13:12.845Z,100480.97
2019-02-08T20:15:41.836Z,100476.34
2019-02-08T20:18:11.911Z,100468.19
2019-02-08T20:20:40.468Z,100467.08
2019-02-08T20:23:09.210Z,100476.88
2019-02-08T20:25:38.048Z,100472.81
2019-02-08T20:28:07.235Z,100468.44
2019-02-08T20:30:35.844Z,100468.19
2019-02-08T20:33:05.532Z,100462.16
2019-02-08T20:35:34.414Z,100464.35
2019-02-08T20:38:04.228Z,100465.17
2019-02-08T20:40:41.428Z,100449.92
2019-02-08T20:43:10.118Z,100446.39
2019-02-08T20:45:39.391Z,100428.96
2019-02-08T20:48:16.753Z,100418.34
2019-02-08T20:50:45.418Z,100428.94
2019-02-08T20:53:14.616Z,100429.77
2019-02-08T20:55:43.721Z,100425.41
2019-02-08T20:58:13.221Z,100421.33
2019-02-08T21:00:45.303Z,100423.21
2019-02-08T21:03:14.638Z,100424.85
2019-02-08T21:05:43.819Z,100424.87
2019-02-08T21:08:13.618Z,100430.59
2019-02-08T21:10:42.608Z,100423.78
2019-02-08T21:13:12.003Z,100419.12
2019-02-08T21:15:41.395Z,100414.79
2019-02-08T21:18:11.010Z,100413.14
2019-02-08T21:20:40.076Z,100416.67
2019-02-08T21:23:09.465Z,100404.69
2019-02-08T21:25:42.254Z,100404.42
2019-02-08T21:28:10.927Z,100404.92
2019-02-08T21:30:39.705Z,100401.10
2019-02-08T21:33:10.466Z,100395.64
2019-02-08T21:35:39.251Z,100384.20
2019-02-08T21:38:08.627Z,100381.22
2019-02-08T21:40:37.720Z,100380.42
2019-02-08T21:43:07.003Z,100377.14
2019-02-08T21:45:38.638Z,100368.97
2019-02-08T21:48:08.786Z,100364.08
2019-02-08T21:50:37.581Z,100360.78
2019-02-08T21:53:06.355Z,100359.19
2019-02-08T21:55:34.995Z,100365.45
2019-02-08T21:58:03.760Z,100353.73
2019-02-08T22:00:37.520Z,100357.55
2019-02-08T22:03:07.463Z,100341.22
2019-02-08T22:05:41.945Z,100347.18
2019-02-08T22:08:10.627Z,100336.31
2019-02-08T22:10:39.247Z,100334.93
2019-02-08T22:13:08.638Z,100323.81
2019-02-08T22:15:39.682Z,100319.44
2019-02-08T22:18:08.625Z,100313.99
2019-02-08T22:20:37.234Z,100314.52
2019-02-08T22:23:06.391Z,100313.17
2019-02-08T22:25:35.130Z,100305.02
2019-02-08T22:28:04.003Z,100303.38
2019-02-08T22:30:32.963Z,100316.42
2019-02-08T22:33:07.320Z,100299.58
2019-02-08T22:35:36.068Z,100301.48
2019-02-08T22:38:06.156Z,100302.28
2019-02-08T22:40:37.135Z,100291.14
2019-02-08T22:43:06.775Z,100285.16
2019-02-08T22:45:43.236Z,100283.00
2019-02-08T22:48:12.210Z,100280.55
2019-02-08T22:50:40.767Z,100275.38
2019-02-08T22:53:09.801Z,100274.02
2019-02-08T22:55:39.005Z,100279.98
2019-02-08T22:58:09.019Z,100269.66
2019-02-08T23:00:49.668Z,100269.94
2019-02-08T23:03:18.292Z,100270.19
2019-02-08T23:05:46.902Z,100261.22
2019-02-08T23:08:16.660Z,100260.42
2019-02-08T23:10:45.372Z,100253.06
2019-02-08T23:13:14.029Z,100250.08
2019-02-08T23:15:42.626Z,100252.78
2019-02-08T23:18:12.200Z,100243.27
2019-02-08T23:20:40.803Z,100238.66
2019-02-08T23:23:09.755Z,100238.64
2019-02-08T23:25:38.709Z,100238.92
2019-02-08T23:28:07.918Z,100231.02
2019-02-08T23:30:36.807Z,100237.30
2019-02-08T23:33:06.319Z,100228.86
2019-02-08T23:35:42.533Z,100231.58
2019-02-08T23:38:05.160Z,100229.12
2019-02-08T23:40:34.119Z,100222.05
2019-02-08T23:43:02.731Z,100218.78
2019-02-08T23:45:31.254Z,100208.72
2019-02-08T23:47:59.850Z,100208.72
2019-02-08T23:50:28.393Z,100201.64
2019-02-08T23:52:57.425Z,100206.27
2019-02-08T23:55:27.090Z,100200.04
2019-02-08T23:57:55.731Z,100190.77
